sensor_id;sensor_type;location;lat;lon;timestamp;P1;durP1;ratioP1;P2;durP2;ratioP2
7110;SDS011;3597;42.650;23.386;2023-09-07T00:01:18;4.47;;;4.27;;
7110;SDS011;3597;42.650;23.386;2023-09-07T00:03:44;4.23;;;4.13;;
7110;SDS011;3597;42.650;23.386;2023-09-07T00:06:09;4.43;;;4.23;;
7110;SDS011;3597;42.650;23.386;2023-09-07T00:08:35;4.20;;;4.10;;
7110;SDS011;3597;42.650;23.386;2023-09-07T00:11:07;4.43;;;4.30;;
7110;SDS011;3597;42.650;23.386;2023-09-07T00:13:34;3.63;;;3.53;;
7110;SDS011;3597;42.650;23.386;2023-09-07T00:16:00;4.17;;;3.97;;
7110;SDS011;3597;42.650;23.386;2023-09-07T00:18:26;4.30;;;4.10;;
7110;SDS011;3597;42.650;23.386;2023-09-07T00:20:52;3.73;;;3.63;;
7110;SDS011;3597;42.650;23.386;2023-09-07T00:23:17;3.60;;;3.40;;
7110;SDS011;3597;42.650;23.386;2023-09-07T00:25:42;3.37;;;3.33;;
7110;SDS011;3597;42.650;23.386;2023-09-07T00:28:08;3.70;;;3.60;;
7110;SDS011;3597;42.650;23.386;2023-09-07T00:30:33;3.70;;;3.60;;
7110;SDS011;3597;42.650;23.386;2023-09-07T00:32:58;4.00;;;3.90;;
7110;SDS011;3597;42.650;23.386;2023-09-07T00:35:24;3.97;;;3.80;;
7110;SDS011;3597;42.650;23.386;2023-09-07T00:37:49;3.70;;;3.60;;
7110;SDS011;3597;42.650;23.386;2023-09-07T00:40:14;3.90;;;3.80;;
7110;SDS011;3597;42.650;23.386;2023-09-07T00:42:40;3.80;;;3.70;;
7110;SDS011;3597;42.650;23.386;2023-09-07T00:45:06;3.80;;;3.70;;
7110;SDS011;3597;42.650;23.386;2023-09-07T00:47:32;4.13;;;4.03;;
7110;SDS011;3597;42.650;23.386;2023-09-07T00:49:59;4.07;;;3.97;;
7110;SDS011;3597;42.650;23.386;2023-09-07T00:52:25;4.30;;;4.20;;
7110;SDS011;3597;42.650;23.386;2023-09-07T00:54:50;3.93;;;3.83;;
7110;SDS011;3597;42.650;23.386;2023-09-07T00:57:15;5.33;;;4.60;;
7110;SDS011;3597;42.650;23.386;2023-09-07T00:59:41;4.27;;;3.97;;
7110;SDS011;3597;42.650;23.386;2023-09-07T01:02:06;4.70;;;4.50;;
7110;SDS011;3597;42.650;23.386;2023-09-07T01:04:31;4.23;;;4.13;;
7110;SDS011;3597;42.650;23.386;2023-09-07T01:07:59;4.40;;;4.30;;
7110;SDS011;3597;42.650;23.386;2023-09-07T01:12:43;4.53;;;4.33;;
7110;SDS011;3597;42.650;23.386;2023-09-07T01:15:09;4.80;;;4.60;;
7110;SDS011;3597;42.650;23.386;2023-09-07T01:17:35;4.80;;;4.60;;
7110;SDS011;3597;42.650;23.386;2023-09-07T01:20:04;4.30;;;4.20;;
7110;SDS011;3597;42.650;23.386;2023-09-07T01:22:36;4.40;;;4.30;;
7110;SDS011;3597;42.650;23.386;2023-09-07T01:25:02;4.50;;;4.30;;
7110;SDS011;3597;42.650;23.386;2023-09-07T01:27:30;4.83;;;4.73;;
7110;SDS011;3597;42.650;23.386;2023-09-07T01:29:55;5.03;;;4.83;;
7110;SDS011;3597;42.650;23.386;2023-09-07T01:32:20;5.20;;;4.80;;
7110;SDS011;3597;42.650;23.386;2023-09-07T01:34:46;4.17;;;4.00;;
7110;SDS011;3597;42.650;23.386;2023-09-07T01:37:11;4.57;;;4.30;;
7110;SDS011;3597;42.650;23.386;2023-09-07T01:39:36;4.30;;;4.20;;
7110;SDS011;3597;42.650;23.386;2023-09-07T01:42:02;4.47;;;4.37;;
7110;SDS011;3597;42.650;23.386;2023-09-07T01:44:28;5.87;;;5.57;;
7110;SDS011;3597;42.650;23.386;2023-09-07T01:46:54;4.43;;;4.33;;
7110;SDS011;3597;42.650;23.386;2023-09-07T01:49:20;4.30;;;4.20;;
7110;SDS011;3597;42.650;23.386;2023-09-07T01:51:45;4.57;;;4.47;;
7110;SDS011;3597;42.650;23.386;2023-09-07T01:54:11;4.77;;;4.67;;
7110;SDS011;3597;42.650;23.386;2023-09-07T01:56:36;4.60;;;4.37;;
7110;SDS011;3597;42.650;23.386;2023-09-07T01:59:04;5.07;;;4.93;;
7110;SDS011;3597;42.650;23.386;2023-09-07T02:01:32;4.50;;;4.37;;
7110;SDS011;3597;42.650;23.386;2023-09-07T02:04:01;4.80;;;4.60;;
7110;SDS011;3597;42.650;23.386;2023-09-07T02:06:27;5.20;;;5.00;;
7110;SDS011;3597;42.650;23.386;2023-09-07T02:08:53;5.03;;;4.90;;
7110;SDS011;3597;42.650;23.386;2023-09-07T02:11:18;4.60;;;4.50;;
7110;SDS011;3597;42.650;23.386;2023-09-07T02:13:47;5.10;;;4.90;;
7110;SDS011;3597;42.650;23.386;2023-09-07T02:16:13;5.60;;;5.20;;
7110;SDS011;3597;42.650;23.386;2023-09-07T02:18:38;5.07;;;4.93;;
7110;SDS011;3597;42.650;23.386;2023-09-07T02:21:08;5.33;;;5.03;;
7110;SDS011;3597;42.650;23.386;2023-09-07T02:23:34;5.00;;;4.80;;
7110;SDS011;3597;42.650;23.386;2023-09-07T02:26:01;5.07;;;4.87;;
7110;SDS011;3597;42.650;23.386;2023-09-07T02:28:27;5.83;;;5.40;;
7110;SDS011;3597;42.650;23.386;2023-09-07T02:30:52;5.20;;;5.10;;
7110;SDS011;3597;42.650;23.386;2023-09-07T02:33:17;5.47;;;5.27;;
7110;SDS011;3597;42.650;23.386;2023-09-07T02:35:43;4.70;;;4.60;;
7110;SDS011;3597;42.650;23.386;2023-09-07T02:38:08;5.50;;;5.20;;
7110;SDS011;3597;42.650;23.386;2023-09-07T02:40:39;5.03;;;4.93;;
7110;SDS011;3597;42.650;23.386;2023-09-07T02:43:06;5.00;;;4.83;;
7110;SDS011;3597;42.650;23.386;2023-09-07T02:45:31;5.30;;;4.97;;
7110;SDS011;3597;42.650;23.386;2023-09-07T02:47:56;5.47;;;5.27;;
7110;SDS011;3597;42.650;23.386;2023-09-07T02:53:36;5.10;;;4.90;;
7110;SDS011;3597;42.650;23.386;2023-09-07T02:56:02;5.50;;;5.30;;
7110;SDS011;3597;42.650;23.386;2023-09-07T02:58:29;5.83;;;5.63;;
7110;SDS011;3597;42.650;23.386;2023-09-07T03:00:55;5.40;;;5.20;;
7110;SDS011;3597;42.650;23.386;2023-09-07T03:03:20;5.53;;;5.33;;
7110;SDS011;3597;42.650;23.386;2023-09-07T03:05:46;4.67;;;4.57;;
7110;SDS011;3597;42.650;23.386;2023-09-07T03:08:11;5.40;;;5.10;;
7110;SDS011;3597;42.650;23.386;2023-09-07T03:10:37;5.10;;;4.90;;
7110;SDS011;3597;42.650;23.386;2023-09-07T03:13:04;5.60;;;5.20;;
7110;SDS011;3597;42.650;23.386;2023-09-07T03:15:33;6.27;;;5.97;;
7110;SDS011;3597;42.650;23.386;2023-09-07T03:17:58;6.33;;;6.13;;
7110;SDS011;3597;42.650;23.386;2023-09-07T03:20:24;6.57;;;6.37;;
7110;SDS011;3597;42.650;23.386;2023-09-07T03:22:49;6.30;;;6.07;;
7110;SDS011;3597;42.650;23.386;2023-09-07T03:25:15;7.10;;;6.90;;
7110;SDS011;3597;42.650;23.386;2023-09-07T03:27:40;6.73;;;6.33;;
7110;SDS011;3597;42.650;23.386;2023-09-07T03:30:06;7.27;;;6.87;;
7110;SDS011;3597;42.650;23.386;2023-09-07T03:32:33;6.57;;;6.33;;
7110;SDS011;3597;42.650;23.386;2023-09-07T03:35:02;6.23;;;5.97;;
7110;SDS011;3597;42.650;23.386;2023-09-07T03:37:34;6.50;;;6.30;;
7110;SDS011;3597;42.650;23.386;2023-09-07T03:39:59;6.27;;;5.93;;
7110;SDS011;3597;42.650;23.386;2023-09-07T03:42:24;6.77;;;6.47;;
7110;SDS011;3597;42.650;23.386;2023-09-07T03:44:50;6.33;;;6.03;;
7110;SDS011;3597;42.650;23.386;2023-09-07T03:47:15;6.60;;;6.33;;
7110;SDS011;3597;42.650;23.386;2023-09-07T03:49:41;6.47;;;6.17;;
7110;SDS011;3597;42.650;23.386;2023-09-07T03:52:06;7.20;;;6.90;;
7110;SDS011;3597;42.650;23.386;2023-09-07T03:54:32;6.97;;;6.57;;
7110;SDS011;3597;42.650;23.386;2023-09-07T03:56:57;7.17;;;6.63;;
7110;SDS011;3597;42.650;23.386;2023-09-07T03:59:22;7.10;;;6.70;;
7110;SDS011;3597;42.650;23.386;2023-09-07T04:01:48;6.90;;;6.60;;
7110;SDS011;3597;42.650;23.386;2023-09-07T04:04:13;7.30;;;7.00;;
7110;SDS011;3597;42.650;23.386;2023-09-07T04:06:39;7.13;;;6.83;;
7110;SDS011;3597;42.650;23.386;2023-09-07T04:09:04;6.90;;;6.60;;
7110;SDS011;3597;42.650;23.386;2023-09-07T04:11:30;6.87;;;6.57;;
7110;SDS011;3597;42.650;23.386;2023-09-07T04:13:55;6.57;;;6.27;;
7110;SDS011;3597;42.650;23.386;2023-09-07T04:16:20;7.33;;;7.03;;
7110;SDS011;3597;42.650;23.386;2023-09-07T04:18:46;6.67;;;6.27;;
7110;SDS011;3597;42.650;23.386;2023-09-07T04:21:11;7.30;;;7.00;;
7110;SDS011;3597;42.650;23.386;2023-09-07T04:23:37;7.43;;;7.03;;
7110;SDS011;3597;42.650;23.386;2023-09-07T04:26:07;6.83;;;6.60;;
7110;SDS011;3597;42.650;23.386;2023-09-07T04:28:33;7.50;;;7.20;;
7110;SDS011;3597;42.650;23.386;2023-09-07T04:30:59;7.53;;;7.23;;
7110;SDS011;3597;42.650;23.386;2023-09-07T04:33:24;7.97;;;7.60;;
7110;SDS011;3597;42.650;23.386;2023-09-07T04:35:49;7.57;;;7.17;;
7110;SDS011;3597;42.650;23.386;2023-09-07T04:38:15;7.57;;;7.07;;
7110;SDS011;3597;42.650;23.386;2023-09-07T04:40:40;7.33;;;7.03;;
7110;SDS011;3597;42.650;23.386;2023-09-07T04:43:05;8.13;;;7.73;;
7110;SDS011;3597;42.650;23.386;2023-09-07T04:45:31;6.70;;;6.23;;
7110;SDS011;3597;42.650;23.386;2023-09-07T04:47:56;6.30;;;6.07;;
7110;SDS011;3597;42.650;23.386;2023-09-07T04:50:21;6.43;;;6.23;;
7110;SDS011;3597;42.650;23.386;2023-09-07T04:52:47;7.13;;;6.80;;
7110;SDS011;3597;42.650;23.386;2023-09-07T04:55:14;6.70;;;6.30;;
7110;SDS011;3597;42.650;23.386;2023-09-07T04:58:15;6.93;;;6.63;;
7110;SDS011;3597;42.650;23.386;2023-09-07T05:00:40;7.27;;;6.97;;
7110;SDS011;3597;42.650;23.386;2023-09-07T05:03:05;6.57;;;6.27;;
7110;SDS011;3597;42.650;23.386;2023-09-07T05:05:31;7.83;;;7.50;;
7110;SDS011;3597;42.650;23.386;2023-09-07T05:07:56;7.90;;;7.40;;
7110;SDS011;3597;42.650;23.386;2023-09-07T05:10:21;8.07;;;7.43;;
7110;SDS011;3597;42.650;23.386;2023-09-07T05:12:46;8.47;;;8.13;;
7110;SDS011;3597;42.650;23.386;2023-09-07T05:15:12;8.07;;;7.57;;
7110;SDS011;3597;42.650;23.386;2023-09-07T05:17:37;7.30;;;7.10;;
7110;SDS011;3597;42.650;23.386;2023-09-07T05:20:03;7.13;;;6.83;;
7110;SDS011;3597;42.650;23.386;2023-09-07T05:22:31;8.20;;;7.70;;
7110;SDS011;3597;42.650;23.386;2023-09-07T05:25:23;7.50;;;7.20;;
7110;SDS011;3597;42.650;23.386;2023-09-07T05:27:48;6.60;;;6.40;;
7110;SDS011;3597;42.650;23.386;2023-09-07T05:30:14;8.00;;;7.67;;
7110;SDS011;3597;42.650;23.386;2023-09-07T05:32:39;7.50;;;7.20;;
7110;SDS011;3597;42.650;23.386;2023-09-07T05:35:06;7.90;;;7.50;;
7110;SDS011;3597;42.650;23.386;2023-09-07T05:37:32;6.97;;;6.77;;
7110;SDS011;3597;42.650;23.386;2023-09-07T05:39:57;7.10;;;6.60;;
7110;SDS011;3597;42.650;23.386;2023-09-07T05:42:23;6.57;;;6.27;;
7110;SDS011;3597;42.650;23.386;2023-09-07T05:44:50;7.07;;;6.67;;
7110;SDS011;3597;42.650;23.386;2023-09-07T05:47:16;6.83;;;6.63;;
7110;SDS011;3597;42.650;23.386;2023-09-07T05:49:42;7.50;;;7.20;;
7110;SDS011;3597;42.650;23.386;2023-09-07T05:52:08;7.57;;;7.27;;
7110;SDS011;3597;42.650;23.386;2023-09-07T05:54:33;6.73;;;6.53;;
7110;SDS011;3597;42.650;23.386;2023-09-07T05:56:58;5.90;;;5.70;;
7110;SDS011;3597;42.650;23.386;2023-09-07T05:59:24;5.70;;;5.43;;
7110;SDS011;3597;42.650;23.386;2023-09-07T06:01:49;5.40;;;5.20;;
7110;SDS011;3597;42.650;23.386;2023-09-07T06:04:14;5.20;;;5.00;;
7110;SDS011;3597;42.650;23.386;2023-09-07T06:06:40;5.67;;;5.40;;
7110;SDS011;3597;42.650;23.386;2023-09-07T06:09:05;5.87;;;5.67;;
7110;SDS011;3597;42.650;23.386;2023-09-07T06:11:30;12.47;;;11.97;;
7110;SDS011;3597;42.650;23.386;2023-09-07T06:13:57;6.20;;;6.00;;
7110;SDS011;3597;42.650;23.386;2023-09-07T06:16:23;4.30;;;4.10;;
7110;SDS011;3597;42.650;23.386;2023-09-07T06:18:48;3.93;;;3.83;;
7110;SDS011;3597;42.650;23.386;2023-09-07T06:21:13;3.63;;;3.53;;
7110;SDS011;3597;42.650;23.386;2023-09-07T06:23:39;3.77;;;3.67;;
7110;SDS011;3597;42.650;23.386;2023-09-07T06:26:04;3.53;;;3.43;;
7110;SDS011;3597;42.650;23.386;2023-09-07T06:28:29;4.63;;;4.33;;
7110;SDS011;3597;42.650;23.386;2023-09-07T06:30:55;3.83;;;3.73;;
7110;SDS011;3597;42.650;23.386;2023-09-07T06:33:20;3.43;;;3.33;;
7110;SDS011;3597;42.650;23.386;2023-09-07T06:35:45;3.30;;;3.20;;
7110;SDS011;3597;42.650;23.386;2023-09-07T06:38:11;3.13;;;3.13;;
7110;SDS011;3597;42.650;23.386;2023-09-07T06:40:36;3.50;;;3.30;;
7110;SDS011;3597;42.650;23.386;2023-09-07T06:43:01;3.40;;;3.30;;
7110;SDS011;3597;42.650;23.386;2023-09-07T06:45:33;3.47;;;3.37;;
7110;SDS011;3597;42.650;23.386;2023-09-07T06:47:59;3.30;;;3.20;;
7110;SDS011;3597;42.650;23.386;2023-09-07T06:50:24;3.43;;;3.23;;
7110;SDS011;3597;42.650;23.386;2023-09-07T06:52:50;3.10;;;3.10;;
7110;SDS011;3597;42.650;23.386;2023-09-07T06:55:16;4.43;;;3.97;;
7110;SDS011;3597;42.650;23.386;2023-09-07T06:57:41;4.28;;;4.18;;
7110;SDS011;3597;42.650;23.386;2023-09-07T07:00:07;4.95;;;4.65;;
7110;SDS011;3597;42.650;23.386;2023-09-07T07:02:33;5.25;;;5.15;;
7110;SDS011;3597;42.650;23.386;2023-09-07T07:04:59;5.20;;;5.10;;
7110;SDS011;3597;42.650;23.386;2023-09-07T07:07:24;5.35;;;5.05;;
7110;SDS011;3597;42.650;23.386;2023-09-07T07:09:50;4.72;;;4.57;;
7110;SDS011;3597;42.650;23.386;2023-09-07T07:12:15;5.50;;;5.30;;
7110;SDS011;3597;42.650;23.386;2023-09-07T07:14:41;5.10;;;4.90;;
7110;SDS011;3597;42.650;23.386;2023-09-07T07:17:06;4.30;;;4.20;;
7110;SDS011;3597;42.650;23.386;2023-09-07T07:19:31;3.92;;;3.72;;
7110;SDS011;3597;42.650;23.386;2023-09-07T07:21:57;3.70;;;3.60;;
7110;SDS011;3597;42.650;23.386;2023-09-07T07:24:22;3.80;;;3.70;;
7110;SDS011;3597;42.650;23.386;2023-09-07T07:26:47;3.50;;;3.40;;
7110;SDS011;3597;42.650;23.386;2023-09-07T07:29:13;3.40;;;3.30;;
7110;SDS011;3597;42.650;23.386;2023-09-07T07:31:38;3.33;;;3.30;;
7110;SDS011;3597;42.650;23.386;2023-09-07T07:34:04;3.20;;;3.10;;
7110;SDS011;3597;42.650;23.386;2023-09-07T07:36:29;3.30;;;3.10;;
7110;SDS011;3597;42.650;23.386;2023-09-07T07:38:54;3.10;;;2.67;;
7110;SDS011;3597;42.650;23.386;2023-09-07T07:41:20;2.83;;;2.63;;
7110;SDS011;3597;42.650;23.386;2023-09-07T07:43:45;3.03;;;2.80;;
7110;SDS011;3597;42.650;23.386;2023-09-07T07:46:11;2.90;;;2.90;;
7110;SDS011;3597;42.650;23.386;2023-09-07T07:48:36;3.20;;;3.10;;
7110;SDS011;3597;42.650;23.386;2023-09-07T07:51:02;3.17;;;3.07;;
7110;SDS011;3597;42.650;23.386;2023-09-07T07:53:29;3.40;;;3.30;;
7110;SDS011;3597;42.650;23.386;2023-09-07T07:55:54;3.13;;;3.03;;
7110;SDS011;3597;42.650;23.386;2023-09-07T07:58:21;3.53;;;3.33;;
7110;SDS011;3597;42.650;23.386;2023-09-07T08:00:46;2.90;;;2.80;;
7110;SDS011;3597;42.650;23.386;2023-09-07T08:03:12;3.20;;;3.10;;
7110;SDS011;3597;42.650;23.386;2023-09-07T08:05:38;3.53;;;3.37;;
7110;SDS011;3597;42.650;23.386;2023-09-07T08:08:04;2.83;;;2.83;;
7110;SDS011;3597;42.650;23.386;2023-09-07T08:10:33;4.90;;;3.30;;
7110;SDS011;3597;42.650;23.386;2023-09-07T08:12:59;3.83;;;3.53;;
7110;SDS011;3597;42.650;23.386;2023-09-07T08:15:24;4.10;;;4.00;;
7110;SDS011;3597;42.650;23.386;2023-09-07T08:17:51;3.60;;;3.40;;
7110;SDS011;3597;42.650;23.386;2023-09-07T08:20:16;3.67;;;3.57;;
7110;SDS011;3597;42.650;23.386;2023-09-07T08:22:42;2.70;;;2.70;;
7110;SDS011;3597;42.650;23.386;2023-09-07T08:25:08;3.00;;;2.80;;
7110;SDS011;3597;42.650;23.386;2023-09-07T08:27:34;2.83;;;2.73;;
7110;SDS011;3597;42.650;23.386;2023-09-07T08:29:59;2.93;;;2.83;;
7110;SDS011;3597;42.650;23.386;2023-09-07T08:32:24;2.57;;;2.57;;
7110;SDS011;3597;42.650;23.386;2023-09-07T08:34:50;2.87;;;2.77;;
7110;SDS011;3597;42.650;23.386;2023-09-07T08:37:15;2.63;;;2.50;;
7110;SDS011;3597;42.650;23.386;2023-09-07T08:39:41;3.53;;;2.67;;
7110;SDS011;3597;42.650;23.386;2023-09-07T08:42:06;2.47;;;2.37;;
7110;SDS011;3597;42.650;23.386;2023-09-07T08:44:33;2.60;;;2.53;;
7110;SDS011;3597;42.650;23.386;2023-09-07T08:46:59;2.50;;;2.50;;
7110;SDS011;3597;42.650;23.386;2023-09-07T08:49:28;2.57;;;2.57;;
7110;SDS011;3597;42.650;23.386;2023-09-07T08:51:57;2.80;;;2.53;;
7110;SDS011;3597;42.650;23.386;2023-09-07T08:54:24;2.77;;;2.77;;
7110;SDS011;3597;42.650;23.386;2023-09-07T08:56:50;2.60;;;2.60;;
7110;SDS011;3597;42.650;23.386;2023-09-07T08:59:15;2.60;;;2.50;;
7110;SDS011;3597;42.650;23.386;2023-09-07T09:01:41;2.30;;;2.30;;
7110;SDS011;3597;42.650;23.386;2023-09-07T09:04:06;2.80;;;2.70;;
7110;SDS011;3597;42.650;23.386;2023-09-07T09:06:32;2.70;;;2.60;;
7110;SDS011;3597;42.650;23.386;2023-09-07T09:08:57;2.57;;;2.57;;
7110;SDS011;3597;42.650;23.386;2023-09-07T09:11:23;2.57;;;2.47;;
7110;SDS011;3597;42.650;23.386;2023-09-07T09:13:51;2.63;;;2.42;;
7110;SDS011;3597;42.650;23.386;2023-09-07T09:16:18;2.55;;;2.55;;
7110;SDS011;3597;42.650;23.386;2023-09-07T09:18:47;2.20;;;2.20;;
7110;SDS011;3597;42.650;23.386;2023-09-07T09:21:14;2.65;;;2.55;;
7110;SDS011;3597;42.650;23.386;2023-09-07T09:23:41;2.28;;;2.28;;
7110;SDS011;3597;42.650;23.386;2023-09-07T09:26:06;2.22;;;2.22;;
7110;SDS011;3597;42.650;23.386;2023-09-07T09:28:32;2.25;;;2.25;;
7110;SDS011;3597;42.650;23.386;2023-09-07T09:30:58;2.70;;;2.65;;
7110;SDS011;3597;42.650;23.386;2023-09-07T09:33:25;2.65;;;2.65;;
7110;SDS011;3597;42.650;23.386;2023-09-07T09:35:50;2.50;;;2.50;;
7110;SDS011;3597;42.650;23.386;2023-09-07T09:38:17;2.65;;;2.47;;
7110;SDS011;3597;42.650;23.386;2023-09-07T09:40:43;2.67;;;2.67;;
7110;SDS011;3597;42.650;23.386;2023-09-07T09:43:08;2.75;;;2.70;;
7110;SDS011;3597;42.650;23.386;2023-09-07T09:45:34;2.38;;;2.38;;
7110;SDS011;3597;42.650;23.386;2023-09-07T09:48:00;2.80;;;2.70;;
7110;SDS011;3597;42.650;23.386;2023-09-07T09:50:27;2.53;;;2.53;;
7110;SDS011;3597;42.650;23.386;2023-09-07T09:52:53;2.53;;;2.50;;
7110;SDS011;3597;42.650;23.386;2023-09-07T09:55:19;2.35;;;2.35;;
7110;SDS011;3597;42.650;23.386;2023-09-07T09:57:44;2.10;;;2.10;;
7110;SDS011;3597;42.650;23.386;2023-09-07T10:00:10;2.70;;;2.50;;
7110;SDS011;3597;42.650;23.386;2023-09-07T10:05:44;2.38;;;2.30;;
7110;SDS011;3597;42.650;23.386;2023-09-07T10:08:12;2.30;;;2.20;;
7110;SDS011;3597;42.650;23.386;2023-09-07T10:10:38;2.50;;;2.50;;
7110;SDS011;3597;42.650;23.386;2023-09-07T10:13:04;2.97;;;2.90;;
7110;SDS011;3597;42.650;23.386;2023-09-07T10:15:30;3.57;;;2.37;;
7110;SDS011;3597;42.650;23.386;2023-09-07T10:18:03;3.33;;;3.13;;
7110;SDS011;3597;42.650;23.386;2023-09-07T10:20:29;2.63;;;2.63;;
7110;SDS011;3597;42.650;23.386;2023-09-07T10:23:04;2.53;;;2.53;;
7110;SDS011;3597;42.650;23.386;2023-09-07T10:25:30;2.83;;;2.73;;
7110;SDS011;3597;42.650;23.386;2023-09-07T10:27:56;2.70;;;2.70;;
7110;SDS011;3597;42.650;23.386;2023-09-07T10:30:22;2.60;;;2.60;;
7110;SDS011;3597;42.650;23.386;2023-09-07T10:32:49;2.43;;;2.43;;
7110;SDS011;3597;42.650;23.386;2023-09-07T10:35:15;2.50;;;2.50;;
7110;SDS011;3597;42.650;23.386;2023-09-07T10:37:41;2.40;;;2.30;;
7110;SDS011;3597;42.650;23.386;2023-09-07T10:40:10;2.50;;;2.50;;
7110;SDS011;3597;42.650;23.386;2023-09-07T10:42:37;2.47;;;2.47;;
7110;SDS011;3597;42.650;23.386;2023-09-07T10:45:11;3.10;;;3.00;;
7110;SDS011;3597;42.650;23.386;2023-09-07T10:47:44;2.67;;;2.67;;
7110;SDS011;3597;42.650;23.386;2023-09-07T10:50:13;2.73;;;2.73;;
7110;SDS011;3597;42.650;23.386;2023-09-07T10:52:39;2.50;;;2.50;;
7110;SDS011;3597;42.650;23.386;2023-09-07T10:55:06;2.70;;;2.70;;
7110;SDS011;3597;42.650;23.386;2023-09-07T10:57:40;2.38;;;2.38;;
7110;SDS011;3597;42.650;23.386;2023-09-07T11:00:06;2.77;;;2.57;;
7110;SDS011;3597;42.650;23.386;2023-09-07T11:02:36;2.80;;;2.70;;
7110;SDS011;3597;42.650;23.386;2023-09-07T11:05:02;2.87;;;2.77;;
7110;SDS011;3597;42.650;23.386;2023-09-07T11:07:27;2.67;;;2.67;;
7110;SDS011;3597;42.650;23.386;2023-09-07T11:09:53;2.63;;;2.63;;
7110;SDS011;3597;42.650;23.386;2023-09-07T11:12:19;2.30;;;2.30;;
7110;SDS011;3597;42.650;23.386;2023-09-07T11:15:03;2.37;;;2.37;;
7110;SDS011;3597;42.650;23.386;2023-09-07T11:17:29;2.97;;;2.70;;
7110;SDS011;3597;42.650;23.386;2023-09-07T11:19:55;2.20;;;2.20;;
7110;SDS011;3597;42.650;23.386;2023-09-07T11:22:20;2.30;;;2.30;;
7110;SDS011;3597;42.650;23.386;2023-09-07T11:24:46;2.27;;;2.20;;
7110;SDS011;3597;42.650;23.386;2023-09-07T11:27:11;2.30;;;2.30;;
7110;SDS011;3597;42.650;23.386;2023-09-07T11:29:37;2.10;;;2.10;;
7110;SDS011;3597;42.650;23.386;2023-09-07T11:32:07;2.10;;;2.10;;
7110;SDS011;3597;42.650;23.386;2023-09-07T11:34:33;4.77;;;2.13;;
7110;SDS011;3597;42.650;23.386;2023-09-07T11:36:59;2.00;;;2.00;;
7110;SDS011;3597;42.650;23.386;2023-09-07T11:39:24;2.30;;;2.20;;
7110;SDS011;3597;42.650;23.386;2023-09-07T11:41:49;3.40;;;2.07;;
7110;SDS011;3597;42.650;23.386;2023-09-07T11:44:15;2.07;;;1.97;;
7110;SDS011;3597;42.650;23.386;2023-09-07T11:46:40;2.27;;;2.17;;
7110;SDS011;3597;42.650;23.386;2023-09-07T11:49:05;2.17;;;2.07;;
7110;SDS011;3597;42.650;23.386;2023-09-07T11:51:31;1.93;;;1.93;;
7110;SDS011;3597;42.650;23.386;2023-09-07T11:53:57;2.20;;;2.20;;
7110;SDS011;3597;42.650;23.386;2023-09-07T11:56:22;2.07;;;2.07;;
7110;SDS011;3597;42.650;23.386;2023-09-07T11:58:48;2.10;;;2.10;;
7110;SDS011;3597;42.650;23.386;2023-09-07T12:01:14;2.13;;;2.10;;
7110;SDS011;3597;42.650;23.386;2023-09-07T12:03:41;2.37;;;2.27;;
7110;SDS011;3597;42.650;23.386;2023-09-07T12:06:07;1.90;;;1.90;;
7110;SDS011;3597;42.650;23.386;2023-09-07T12:08:33;2.10;;;2.10;;
7110;SDS011;3597;42.650;23.386;2023-09-07T12:10:58;2.17;;;2.17;;
7110;SDS011;3597;42.650;23.386;2023-09-07T12:13:23;2.03;;;2.03;;
7110;SDS011;3597;42.650;23.386;2023-09-07T12:15:50;2.00;;;2.00;;
7110;SDS011;3597;42.650;23.386;2023-09-07T12:18:16;2.60;;;2.50;;
7110;SDS011;3597;42.650;23.386;2023-09-07T12:20:41;1.80;;;1.80;;
7110;SDS011;3597;42.650;23.386;2023-09-07T12:23:09;1.83;;;1.83;;
7110;SDS011;3597;42.650;23.386;2023-09-07T12:25:35;2.10;;;2.00;;
7110;SDS011;3597;42.650;23.386;2023-09-07T12:28:00;1.90;;;1.90;;
7110;SDS011;3597;42.650;23.386;2023-09-07T12:30:26;2.20;;;2.10;;
7110;SDS011;3597;42.650;23.386;2023-09-07T12:32:51;1.90;;;1.90;;
7110;SDS011;3597;42.650;23.386;2023-09-07T12:35:17;2.37;;;2.30;;
7110;SDS011;3597;42.650;23.386;2023-09-07T12:37:53;1.97;;;1.97;;
7110;SDS011;3597;42.650;23.386;2023-09-07T12:40:38;2.40;;;2.23;;
7110;SDS011;3597;42.650;23.386;2023-09-07T12:43:04;2.20;;;2.10;;
7110;SDS011;3597;42.650;23.386;2023-09-07T12:45:29;2.00;;;1.90;;
7110;SDS011;3597;42.650;23.386;2023-09-07T12:47:54;2.27;;;2.13;;
7110;SDS011;3597;42.650;23.386;2023-09-07T12:50:19;2.10;;;2.10;;
7110;SDS011;3597;42.650;23.386;2023-09-07T12:52:45;1.93;;;1.93;;
7110;SDS011;3597;42.650;23.386;2023-09-07T12:55:11;1.80;;;1.80;;
7110;SDS011;3597;42.650;23.386;2023-09-07T12:57:36;2.00;;;1.90;;
7110;SDS011;3597;42.650;23.386;2023-09-07T13:00:02;1.90;;;1.90;;
7110;SDS011;3597;42.650;23.386;2023-09-07T13:02:31;2.10;;;2.10;;
7110;SDS011;3597;42.650;23.386;2023-09-07T13:04:57;2.10;;;2.10;;
7110;SDS011;3597;42.650;23.386;2023-09-07T13:07:29;2.27;;;2.17;;
7110;SDS011;3597;42.650;23.386;2023-09-07T13:10:18;1.73;;;1.73;;
7110;SDS011;3597;42.650;23.386;2023-09-07T13:12:43;1.90;;;1.90;;
7110;SDS011;3597;42.650;23.386;2023-09-07T13:15:09;2.00;;;2.00;;
7110;SDS011;3597;42.650;23.386;2023-09-07T13:17:34;1.90;;;1.90;;
7110;SDS011;3597;42.650;23.386;2023-09-07T13:20:00;2.13;;;2.07;;
7110;SDS011;3597;42.650;23.386;2023-09-07T13:22:25;2.00;;;2.00;;
7110;SDS011;3597;42.650;23.386;2023-09-07T13:24:50;1.83;;;1.73;;
7110;SDS011;3597;42.650;23.386;2023-09-07T13:27:16;2.40;;;2.30;;
7110;SDS011;3597;42.650;23.386;2023-09-07T13:29:41;2.30;;;2.30;;
7110;SDS011;3597;42.650;23.386;2023-09-07T13:32:06;2.20;;;2.20;;
7110;SDS011;3597;42.650;23.386;2023-09-07T13:34:32;1.90;;;1.90;;
7110;SDS011;3597;42.650;23.386;2023-09-07T13:36:57;2.00;;;2.00;;
7110;SDS011;3597;42.650;23.386;2023-09-07T13:39:24;2.10;;;2.00;;
7110;SDS011;3597;42.650;23.386;2023-09-07T13:41:49;2.10;;;2.10;;
7110;SDS011;3597;42.650;23.386;2023-09-07T13:44:14;2.10;;;2.10;;
7110;SDS011;3597;42.650;23.386;2023-09-07T13:46:40;2.20;;;2.20;;
7110;SDS011;3597;42.650;23.386;2023-09-07T13:49:06;2.80;;;2.57;;
7110;SDS011;3597;42.650;23.386;2023-09-07T13:51:31;2.60;;;2.07;;
7110;SDS011;3597;42.650;23.386;2023-09-07T13:54:02;2.07;;;2.07;;
7110;SDS011;3597;42.650;23.386;2023-09-07T13:56:28;2.50;;;2.43;;
7110;SDS011;3597;42.650;23.386;2023-09-07T13:58:53;1.70;;;1.70;;
7110;SDS011;3597;42.650;23.386;2023-09-07T14:01:19;2.20;;;2.10;;
7110;SDS011;3597;42.650;23.386;2023-09-07T14:03:44;2.00;;;2.00;;
7110;SDS011;3597;42.650;23.386;2023-09-07T14:06:09;1.90;;;1.80;;
7110;SDS011;3597;42.650;23.386;2023-09-07T14:08:35;2.00;;;2.00;;
7110;SDS011;3597;42.650;23.386;2023-09-07T14:11:00;2.03;;;2.00;;
7110;SDS011;3597;42.650;23.386;2023-09-07T14:13:26;1.90;;;1.90;;
7110;SDS011;3597;42.650;23.386;2023-09-07T14:15:51;2.77;;;2.43;;
7110;SDS011;3597;42.650;23.386;2023-09-07T14:18:17;2.30;;;2.10;;
7110;SDS011;3597;42.650;23.386;2023-09-07T14:20:42;2.10;;;2.00;;
7110;SDS011;3597;42.650;23.386;2023-09-07T14:23:08;1.97;;;1.97;;
7110;SDS011;3597;42.650;23.386;2023-09-07T14:25:34;3.23;;;2.30;;
7110;SDS011;3597;42.650;23.386;2023-09-07T14:27:59;2.03;;;2.03;;
7110;SDS011;3597;42.650;23.386;2023-09-07T14:30:25;2.07;;;2.07;;
7110;SDS011;3597;42.650;23.386;2023-09-07T14:32:50;2.20;;;2.20;;
7110;SDS011;3597;42.650;23.386;2023-09-07T14:35:15;2.00;;;2.00;;
7110;SDS011;3597;42.650;23.386;2023-09-07T14:37:41;2.03;;;2.03;;
7110;SDS011;3597;42.650;23.386;2023-09-07T14:40:06;2.27;;;2.27;;
7110;SDS011;3597;42.650;23.386;2023-09-07T14:42:32;2.10;;;2.00;;
7110;SDS011;3597;42.650;23.386;2023-09-07T14:44:58;1.90;;;1.90;;
7110;SDS011;3597;42.650;23.386;2023-09-07T14:47:26;2.10;;;2.10;;
7110;SDS011;3597;42.650;23.386;2023-09-07T14:49:53;3.47;;;3.27;;
7110;SDS011;3597;42.650;23.386;2023-09-07T14:52:18;1.90;;;1.90;;
7110;SDS011;3597;42.650;23.386;2023-09-07T14:54:44;2.23;;;2.13;;
7110;SDS011;3597;42.650;23.386;2023-09-07T14:57:09;2.30;;;2.30;;
7110;SDS011;3597;42.650;23.386;2023-09-07T14:59:35;2.13;;;2.13;;
7110;SDS011;3597;42.650;23.386;2023-09-07T15:02:00;2.97;;;2.80;;
7110;SDS011;3597;42.650;23.386;2023-09-07T15:04:26;1.90;;;1.90;;